Time;durP1;ratioP1;P1;durP2;ratioP2;P2;SDS_P1;SDS_P2;PMS_P1;PMS_P2;Temp;Humidity;BMP_temperature;BMP_pressure;BME280_temperature;BME280_humidity;BME280_pressure;Samples;Min_cycle;Max_cycle;Signal;HPM_P1;HPM_P2
2023/05/25 00:01:43;;;;;;;4.50;2.22;;;;;17.50;102456.00;;;;5088906;28;20604;-75
2023/05/25 00:04:15;;;;;;;4.93;2.17;;;;;17.50;102459.00;;;;5089047;28;20273;-76
2023/05/25 00:06:44;;;;;;;5.18;2.13;;;;;17.50;102462.00;;;;5088805;28;20204;-75
2023/05/25 00:09:13;;;;;;;4.57;1.80;;;;;17.50;102458.00;;;;5087725;28;20252;-76
2023/05/25 00:11:40;;;;;;;6.32;2.17;;;;;17.50;102452.00;;;;5088581;28;20685;-75
2023/05/25 00:14:08;;;;;;;4.47;1.80;;;;;17.50;102454.00;;;;5088059;28;20367;-75
2023/05/25 00:16:36;;;;;;;4.68;2.35;;;;;17.40;102453.00;;;;5088328;28;20206;-75
2023/05/25 00:19:05;;;;;;;8.10;2.35;;;;;17.40;102455.00;;;;5087240;28;20222;-76
2023/05/25 00:21:36;;;;;;;5.35;2.78;;;;;17.40;102451.00;;;;5089245;28;20198;-75
2023/05/25 00:24:04;;;;;;;4.97;2.30;;;;;17.40;102455.00;;;;5089992;28;20198;-75
2023/05/25 00:26:33;;;;;;;4.30;2.38;;;;;17.30;102457.00;;;;5089222;28;20210;-76
2023/05/25 00:29:00;;;;;;;4.03;2.03;;;;;17.30;102463.00;;;;5077698;28;20194;-75
2023/05/25 00:31:28;;;;;;;5.53;2.55;;;;;17.30;102463.00;;;;5088277;28;20218;-75
2023/05/25 00:33:55;;;;;;;3.65;2.00;;;;;17.30;102462.00;;;;5088091;28;20202;-75
2023/05/25 00:36:23;;;;;;;3.85;2.40;;;;;17.30;102468.00;;;;5087271;28;20208;-76
2023/05/25 00:38:51;;;;;;;6.65;2.17;;;;;17.30;102462.00;;;;5087576;28;20591;-75
2023/05/25 00:41:18;;;;;;;5.88;1.95;;;;;17.20;102469.00;;;;5088050;28;20695;-75
2023/05/25 00:43:47;;;;;;;4.50;2.47;;;;;17.20;102476.00;;;;5087991;28;20207;-76
2023/05/25 00:46:15;;;;;;;4.82;1.85;;;;;17.20;102470.00;;;;5087802;28;20206;-76
2023/05/25 00:48:43;;;;;;;4.22;1.90;;;;;17.20;102466.00;;;;5081029;28;20726;-75
2023/05/25 00:51:13;;;;;;;3.13;1.70;;;;;17.10;102462.00;;;;5087553;28;20206;-75
2023/05/25 00:53:41;;;;;;;3.53;2.20;;;;;17.10;102455.00;;;;5086217;28;20194;-76
2023/05/25 00:56:14;;;;;;;3.83;2.08;;;;;17.00;102463.00;;;;5087849;28;20201;-76
2023/05/25 00:58:44;;;;;;;4.93;1.90;;;;;17.00;102463.00;;;;5086527;28;20252;-76
2023/05/25 01:01:15;;;;;;;4.90;1.92;;;;;17.00;102464.00;;;;5085751;28;20190;-76
2023/05/25 01:03:45;;;;;;;5.03;2.20;;;;;16.90;102470.00;;;;5086632;28;20674;-75
2023/05/25 01:06:14;;;;;;;5.50;2.83;;;;;16.90;102474.00;;;;5085203;28;20218;-75
2023/05/25 01:08:45;;;;;;;6.28;1.80;;;;;16.90;102472.00;;;;5087359;28;20734;-76
2023/05/25 01:11:15;;;;;;;4.13;2.00;;;;;16.80;102470.00;;;;5087683;28;20198;-76
2023/05/25 01:13:43;;;;;;;5.20;2.10;;;;;16.80;102476.00;;;;5087513;28;20202;-75
2023/05/25 01:16:12;;;;;;;2.88;1.50;;;;;16.70;102468.00;;;;5087555;28;20198;-76
2023/05/25 01:18:40;;;;;;;4.35;1.70;;;;;16.70;102471.00;;;;5087439;28;20244;-75
2023/05/25 01:21:18;;;;;;;3.15;2.03;;;;;16.60;102476.00;;;;5087651;28;20190;-75
2023/05/25 01:23:51;;;;;;;4.05;1.70;;;;;16.60;102470.00;;;;5083863;28;20202;-75
2023/05/25 01:26:20;;;;;;;4.43;2.40;;;;;16.60;102478.00;;;;5086376;28;20199;-75
2023/05/25 01:28:52;;;;;;;4.30;2.20;;;;;16.50;102485.00;;;;5084325;28;20198;-76
2023/05/25 01:31:22;;;;;;;3.30;1.63;;;;;16.50;102483.00;;;;5076614;28;20198;-76
2023/05/25 01:33:51;;;;;;;2.50;1.85;;;;;16.50;102489.00;;;;5072061;28;20195;-76
2023/05/25 01:36:20;;;;;;;3.25;1.90;;;;;16.40;102489.00;;;;5088330;28;20202;-75
2023/05/25 01:38:48;;;;;;;4.32;1.65;;;;;16.40;102489.00;;;;5086385;28;20210;-76
2023/05/25 01:41:16;;;;;;;3.55;1.77;;;;;16.40;102485.00;;;;5086979;28;20190;-75
2023/05/25 01:43:43;;;;;;;1.85;1.45;;;;;16.40;102487.00;;;;5088502;28;20190;-75
2023/05/25 01:46:19;;;;;;;3.35;2.08;;;;;16.30;102483.00;;;;5072396;28;20747;-75
2023/05/25 01:48:55;;;;;;;4.50;2.15;;;;;16.20;102484.00;;;;5084590;28;20213;-76
2023/05/25 01:51:32;;;;;;;5.55;2.28;;;;;16.20;102490.00;;;;5087950;28;20651;-76
2023/05/25 01:54:02;;;;;;;4.78;2.40;;;;;16.20;102492.00;;;;5088068;28;20223;-76
2023/05/25 01:56:32;;;;;;;4.95;3.13;;;;;16.20;102488.00;;;;5088275;28;20206;-75
2023/05/25 01:59:01;;;;;;;4.18;2.40;;;;;16.20;102496.00;;;;5086850;28;20230;-76
2023/05/25 02:01:29;;;;;;;4.32;2.17;;;;;16.20;102497.00;;;;5086961;28;20199;-75
2023/05/25 02:03:57;;;;;;;4.72;2.38;;;;;16.20;102495.00;;;;5087724;28;20206;-76
2023/05/25 02:06:26;;;;;;;2.40;1.83;;;;;16.20;102495.00;;;;5084631;28;20206;-76
2023/05/25 02:08:54;;;;;;;3.85;1.88;;;;;16.20;102498.00;;;;5087732;28;20194;-76
2023/05/25 02:11:21;;;;;;;2.42;1.58;;;;;16.20;102495.00;;;;5086628;28;20191;-75
2023/05/25 02:13:48;;;;;;;4.82;2.20;;;;;16.10;102495.00;;;;5087684;28;20218;-75
2023/05/25 02:16:15;;;;;;;5.28;1.83;;;;;16.10;102495.00;;;;5087752;28;20671;-76
2023/05/25 02:18:44;;;;;;;2.88;1.85;;;;;16.10;102494.00;;;;5087882;28;20704;-76
2023/05/25 02:21:12;;;;;;;3.53;1.88;;;;;16.10;102494.00;;;;5087757;28;20202;-76
2023/05/25 02:23:40;;;;;;;3.97;1.75;;;;;16.00;102496.00;;;;5076967;28;20194;-75
2023/05/25 02:26:07;;;;;;;2.90;1.80;;;;;16.00;102484.00;;;;5087374;28;20194;-75
2023/05/25 02:28:35;;;;;;;5.85;1.90;;;;;16.00;102491.00;;;;5086473;28;20205;-76
2023/05/25 02:31:02;;;;;;;4.53;1.80;;;;;16.00;102489.00;;;;5079247;28;20203;-75
2023/05/25 02:33:29;;;;;;;5.30;2.10;;;;;16.00;102490.00;;;;5086283;28;20719;-76
2023/05/25 02:35:57;;;;;;;3.47;2.10;;;;;15.90;102491.00;;;;5080257;28;20202;-75
2023/05/25 02:38:24;;;;;;;3.72;2.10;;;;;15.90;102498.00;;;;5087882;28;20198;-75
2023/05/25 02:40:53;;;;;;;2.40;1.90;;;;;15.90;102499.00;;;;5086355;28;20889;-75
2023/05/25 02:43:20;;;;;;;4.05;2.45;;;;;15.90;102496.00;;;;5088634;28;20199;-75
2023/05/25 02:45:47;;;;;;;2.85;1.90;;;;;15.90;102492.00;;;;5090815;28;20569;-76
2023/05/25 02:48:14;;;;;;;5.45;2.13;;;;;15.90;102499.00;;;;5091209;28;20226;-76
2023/05/25 02:50:42;;;;;;;4.32;2.25;;;;;15.80;102490.00;;;;5088786;28;20194;-75
2023/05/25 02:53:09;;;;;;;6.95;2.33;;;;;15.80;102490.00;;;;5089973;28;20594;-75
2023/05/25 02:55:39;;;;;;;3.22;2.00;;;;;15.80;102497.00;;;;5074038;28;20281;-76
2023/05/25 02:58:07;;;;;;;4.45;2.08;;;;;15.80;102487.00;;;;5089261;28;20289;-76
2023/05/25 03:00:35;;;;;;;3.45;2.08;;;;;15.80;102499.00;;;;5090601;28;20229;-76
2023/05/25 03:03:02;;;;;;;2.70;1.98;;;;;15.80;102498.00;;;;5088713;28;20210;-75
2023/05/25 03:05:29;;;;;;;4.03;1.80;;;;;15.70;102502.00;;;;5085339;28;20197;-75
2023/05/25 03:07:56;;;;;;;3.50;1.77;;;;;15.70;102503.00;;;;5070655;28;20210;-75
2023/05/25 03:10:24;;;;;;;3.72;2.20;;;;;15.70;102502.00;;;;5078556;28;20198;-75
2023/05/25 03:12:51;;;;;;;4.95;2.42;;;;;15.70;102491.00;;;;5090127;28;20198;-75
2023/05/25 03:15:19;;;;;;;5.47;2.53;;;;;15.60;102506.00;;;;5091038;28;20297;-75
2023/05/25 03:17:47;;;;;;;7.85;2.78;;;;;15.70;102499.00;;;;5089251;28;20207;-76
2023/05/25 03:20:15;;;;;;;5.00;3.03;;;;;15.60;102513.00;;;;5090046;28;20692;-75
2023/05/25 03:22:42;;;;;;;4.55;2.28;;;;;15.60;102511.00;;;;5084978;28;20769;-75
2023/05/25 03:25:11;;;;;;;5.43;2.70;;;;;15.60;102517.00;;;;5088668;28;20205;-76
2023/05/25 03:27:39;;;;;;;7.65;2.85;;;;;15.60;102525.00;;;;5089830;28;20303;-75
2023/05/25 03:30:08;;;;;;;4.50;2.55;;;;;15.60;102529.00;;;;5087122;28;20210;-76
2023/05/25 03:32:36;;;;;;;2.85;1.90;;;;;15.60;102530.00;;;;5089123;28;20235;-76
2023/05/25 03:35:06;;;;;;;4.65;2.53;;;;;15.60;102527.00;;;;5089007;28;20208;-76
2023/05/25 03:37:34;;;;;;;3.70;2.38;;;;;15.60;102531.00;;;;5090302;28;20203;-75
2023/05/25 03:40:01;;;;;;;3.20;2.40;;;;;15.60;102527.00;;;;5090539;28;20222;-76
2023/05/25 03:42:28;;;;;;;6.70;2.55;;;;;15.60;102520.00;;;;5089092;28;20191;-76
2023/05/25 03:44:56;;;;;;;5.93;2.53;;;;;15.60;102518.00;;;;5089828;28;20251;-75
2023/05/25 03:47:23;;;;;;;7.45;2.45;;;;;15.60;102518.00;;;;5081570;28;20222;-75
2023/05/25 03:49:51;;;;;;;4.88;2.63;;;;;15.60;102514.00;;;;5085181;28;20202;-75
2023/05/25 03:52:19;;;;;;;4.22;2.28;;;;;15.60;102514.00;;;;5088461;28;20190;-76
2023/05/25 03:54:46;;;;;;;5.32;2.70;;;;;15.60;102521.00;;;;5090275;28;20206;-76
2023/05/25 03:57:13;;;;;;;4.47;2.38;;;;;15.60;102520.00;;;;5089425;28;20198;-75
2023/05/25 03:59:41;;;;;;;4.43;2.20;;;;;15.60;102519.00;;;;5089324;28;20226;-75
2023/05/25 04:02:08;;;;;;;4.88;2.15;;;;;15.60;102525.00;;;;5088849;28;20191;-76
2023/05/25 04:04:37;;;;;;;3.53;2.10;;;;;15.60;102531.00;;;;5082128;28;20203;-75
2023/05/25 04:07:05;;;;;;;3.97;2.10;;;;;15.70;102523.00;;;;5085662;28;20652;-76
2023/05/25 04:09:33;;;;;;;4.07;2.35;;;;;15.70;102529.00;;;;5088733;28;20198;-76
2023/05/25 04:12:01;;;;;;;4.80;2.53;;;;;15.70;102523.00;;;;5087373;28;20395;-75
2023/05/25 04:14:28;;;;;;;4.25;2.28;;;;;15.70;102532.00;;;;5088631;28;20213;-75
2023/05/25 04:16:55;;;;;;;3.45;2.25;;;;;15.70;102530.00;;;;5088651;28;20938;-76
2023/05/25 04:19:22;;;;;;;7.43;2.42;;;;;15.70;102533.00;;;;5088522;28;20722;-75
2023/05/25 04:21:50;;;;;;;10.93;2.92;;;;;15.80;102538.00;;;;5088501;28;20206;-75
2023/05/25 04:24:18;;;;;;;4.72;2.85;;;;;15.80;102533.00;;;;5089670;28;20202;-75
2023/05/25 04:26:46;;;;;;;3.92;2.58;;;;;15.80;102531.00;;;;5087980;28;20194;-75
2023/05/25 04:29:13;;;;;;;6.82;3.20;;;;;15.80;102541.00;;;;5086902;28;20262;-75
2023/05/25 04:31:42;;;;;;;6.30;3.28;;;;;15.90;102540.00;;;;5088579;28;20388;-75
2023/05/25 04:34:09;;;;;;;4.15;2.47;;;;;15.90;102538.00;;;;5088919;28;20202;-75
2023/05/25 04:36:37;;;;;;;6.90;2.90;;;;;15.90;102549.00;;;;5085784;28;20194;-76
2023/05/25 04:39:06;;;;;;;6.68;2.80;;;;;16.00;102557.00;;;;5088170;28;20305;-76
2023/05/25 04:41:36;;;;;;;3.95;2.53;;;;;16.00;102556.00;;;;5088970;28;20252;-75
2023/05/25 04:44:03;;;;;;;5.22;2.78;;;;;16.00;102559.00;;;;5073954;28;20198;-75
2023/05/25 04:46:31;;;;;;;5.47;2.63;;;;;16.10;102554.00;;;;5081359;28;20209;-75
2023/05/25 04:48:58;;;;;;;3.40;2.60;;;;;16.10;102561.00;;;;5088519;28;20222;-75
2023/05/25 04:51:26;;;;;;;6.75;2.97;;;;;16.10;102560.00;;;;5088617;28;20668;-75
2023/05/25 04:53:53;;;;;;;6.10;3.50;;;;;16.20;102570.00;;;;5086395;28;20202;-75
2023/05/25 04:56:24;;;;;;;5.95;3.22;;;;;16.20;102563.00;;;;5084745;28;20205;-75
2023/05/25 04:58:53;;;;;;;4.30;2.50;;;;;16.30;102569.00;;;;5084922;28;20202;-75
2023/05/25 05:01:20;;;;;;;6.05;3.08;;;;;16.30;102569.00;;;;5082021;28;20206;-75
2023/05/25 05:03:49;;;;;;;5.50;2.60;;;;;16.40;102570.00;;;;5086693;28;20199;-75
2023/05/25 05:06:16;;;;;;;7.93;3.33;;;;;16.50;102580.00;;;;5086021;28;20282;-76
2023/05/25 05:08:44;;;;;;;6.50;2.88;;;;;16.50;102582.00;;;;5072737;28;20579;-76
2023/05/25 05:11:11;;;;;;;8.13;3.40;;;;;16.60;102591.00;;;;5087165;28;20203;-75
2023/05/25 05:13:38;;;;;;;7.45;3.10;;;;;16.60;102580.00;;;;5088697;28;20190;-75
2023/05/25 05:16:07;;;;;;;4.38;3.00;;;;;16.70;102589.00;;;;5088988;28;20194;-75
2023/05/25 05:18:34;;;;;;;5.10;2.85;;;;;16.80;102597.00;;;;5088856;28;20190;-75
2023/05/25 05:21:02;;;;;;;4.63;2.97;;;;;16.80;102595.00;;;;5086142;28;20218;-76
2023/05/25 05:23:29;;;;;;;7.00;2.97;;;;;16.90;102582.00;;;;5088081;28;20198;-75
2023/05/25 05:25:59;;;;;;;6.10;2.67;;;;;16.90;102587.00;;;;5085988;28;20625;-75
2023/05/25 05:28:27;;;;;;;4.53;2.92;;;;;17.00;102587.00;;;;5085172;28;20194;-76
2023/05/25 05:30:54;;;;;;;7.55;3.35;;;;;17.10;102582.00;;;;5086821;28;20317;-76
2023/05/25 05:33:23;;;;;;;4.50;2.45;;;;;17.10;102582.00;;;;5086916;28;20222;-76
2023/05/25 05:35:51;;;;;;;8.68;3.13;;;;;17.20;102591.00;;;;5084059;28;20588;-76
2023/05/25 05:38:18;;;;;;;8.60;3.50;;;;;17.30;102595.00;;;;5085380;28;20233;-76
2023/05/25 05:40:46;;;;;;;8.20;3.35;;;;;17.30;102605.00;;;;5088209;28;20218;-75
2023/05/25 05:43:14;;;;;;;4.68;2.85;;;;;17.40;102609.00;;;;5088649;28;20648;-76
2023/05/25 05:45:41;;;;;;;5.43;2.70;;;;;17.40;102605.00;;;;5085330;28;20205;-75
2023/05/25 05:48:09;;;;;;;5.93;3.17;;;;;17.50;102618.00;;;;5089107;28;20210;-77
2023/05/25 05:50:38;;;;;;;5.95;2.83;;;;;17.50;102619.00;;;;5086680;28;20206;-76
2023/05/25 05:53:06;;;;;;;6.82;2.75;;;;;17.60;102622.00;;;;5084643;28;20210;-76
2023/05/25 05:55:33;;;;;;;4.32;2.92;;;;;17.70;102618.00;;;;5071501;28;20195;-76
2023/05/25 05:58:01;;;;;;;5.03;2.97;;;;;17.70;102622.00;;;;5085799;28;20301;-77
2023/05/25 06:00:28;;;;;;;5.45;2.78;;;;;17.80;102620.00;;;;5086036;28;20676;-75
2023/05/25 06:02:55;;;;;;;7.03;2.83;;;;;17.80;102623.00;;;;5082044;28;20198;-76
2023/05/25 06:05:22;;;;;;;5.40;3.00;;;;;17.90;102627.00;;;;5084877;28;20198;-77
2023/05/25 06:07:51;;;;;;;9.75;2.85;;;;;18.00;102633.00;;;;5086254;28;20263;-77
2023/05/25 06:10:18;;;;;;;6.70;3.38;;;;;18.10;102638.00;;;;5087764;28;20210;-76
2023/05/25 06:12:46;;;;;;;6.40;3.15;;;;;18.10;102641.00;;;;5087197;28;20660;-78
2023/05/25 06:15:13;;;;;;;4.57;2.75;;;;;18.20;102630.00;;;;5087036;28;20586;-78
2023/05/25 06:17:41;;;;;;;10.15;3.28;;;;;18.20;102639.00;;;;5089855;28;20552;-78
2023/05/25 06:20:10;;;;;;;4.63;2.88;;;;;18.30;102643.00;;;;5091531;28;20228;-78
2023/05/25 06:22:37;;;;;;;4.88;2.50;;;;;18.40;102651.00;;;;5091430;28;20207;-78
2023/05/25 06:25:09;;;;;;;4.60;3.08;;;;;18.50;102649.00;;;;5092184;28;20205;-78
2023/05/25 06:27:36;;;;;;;8.60;3.00;;;;;18.50;102657.00;;;;5087439;28;20198;-78
2023/05/25 06:30:04;;;;;;;8.05;3.28;;;;;18.60;102657.00;;;;5090073;28;20671;-77
2023/05/25 06:32:31;;;;;;;6.93;3.22;;;;;18.70;102665.00;;;;5091410;28;20318;-78
2023/05/25 06:34:59;;;;;;;6.45;3.05;;;;;18.70;102657.00;;;;5087648;28;20198;-78
2023/05/25 06:37:26;;;;;;;7.80;3.03;;;;;18.80;102657.00;;;;5089636;28;20196;-79
2023/05/25 06:39:53;;;;;;;4.15;2.35;;;;;18.80;102665.00;;;;5090319;28;20332;-78
2023/05/25 06:42:22;;;;;;;8.63;3.15;;;;;18.90;102665.00;;;;5090553;28;20596;-78
2023/05/25 06:44:49;;;;;;;5.32;3.00;;;;;19.00;102665.00;;;;5089865;28;20699;-78
2023/05/25 06:47:17;;;;;;;4.95;2.67;;;;;19.00;102671.00;;;;5089525;28;20578;-78
2023/05/25 06:49:44;;;;;;;7.15;3.20;;;;;19.10;102675.00;;;;5090944;28;20571;-78
2023/05/25 06:52:11;;;;;;;4.50;2.83;;;;;19.20;102672.00;;;;5089326;28;20201;-78
2023/05/25 06:54:38;;;;;;;5.28;3.03;;;;;19.20;102675.00;;;;5088890;28;20232;-78
2023/05/25 06:57:06;;;;;;;5.93;2.70;;;;;19.30;102667.00;;;;5088885;28;20198;-79
2023/05/25 06:59:35;;;;;;;6.75;2.95;;;;;19.30;102671.00;;;;5090007;28;20198;-78
2023/05/25 07:02:02;;;;;;;6.28;2.45;;;;;19.40;102674.00;;;;5091155;28;20202;-77
2023/05/25 07:04:30;;;;;;;5.13;2.42;;;;;19.40;102676.00;;;;5089843;28;20197;-78
2023/05/25 07:06:57;;;;;;;10.70;3.40;;;;;19.50;102676.00;;;;5090555;28;20206;-77
2023/05/25 07:09:24;;;;;;;6.38;3.05;;;;;19.60;102678.00;;;;5090629;28;20202;-77
2023/05/25 07:11:51;;;;;;;4.03;2.63;;;;;19.60;102680.00;;;;5091079;28;20249;-77
2023/05/25 07:14:19;;;;;;;5.30;2.53;;;;;19.70;102683.00;;;;5089360;28;20205;-77
2023/05/25 07:16:47;;;;;;;7.10;2.88;;;;;19.70;102680.00;;;;5091090;28;20210;-77
2023/05/25 07:19:15;;;;;;;4.55;2.85;;;;;19.80;102685.00;;;;5090407;28;20213;-78
2023/05/25 07:21:42;;;;;;;5.60;2.55;;;;;19.90;102684.00;;;;5090453;28;20551;-78
2023/05/25 07:24:09;;;;;;;10.82;2.90;;;;;20.00;102690.00;;;;5090539;28;21185;-77
2023/05/25 07:26:36;;;;;;;5.95;2.67;;;;;20.00;102687.00;;;;5090334;28;20210;-78
2023/05/25 07:29:04;;;;;;;4.05;2.70;;;;;20.10;102688.00;;;;5090449;28;20209;-78
2023/05/25 07:31:31;;;;;;;5.57;2.40;;;;;20.10;102686.00;;;;5089926;28;20290;-78
2023/05/25 07:33:59;;;;;;;4.55;2.80;;;;;20.30;102689.00;;;;5090476;28;20209;-78
2023/05/25 07:36:27;;;;;;;7.10;2.80;;;;;20.40;102686.00;;;;5090024;28;20642;-78
2023/05/25 07:38:54;;;;;;;5.15;2.30;;;;;20.50;102692.00;;;;5090111;28;20186;-77
2023/05/25 07:41:21;;;;;;;7.72;2.72;;;;;20.60;102696.00;;;;5089717;28;20320;-77
2023/05/25 07:43:51;;;;;;;5.97;2.88;;;;;20.70;102694.00;;;;5090055;28;20190;-77
2023/05/25 07:46:21;;;;;;;6.07;2.80;;;;;20.80;102707.00;;;;5090013;28;20202;-77
2023/05/25 07:48:48;;;;;;;5.53;3.10;;;;;20.90;102707.00;;;;5090303;28;20245;-79
2023/05/25 07:51:17;;;;;;;7.13;3.10;;;;;20.90;102706.00;;;;5089674;28;20201;-77
2023/05/25 07:53:44;;;;;;;10.48;3.40;;;;;21.00;102697.00;;;;5089313;28;20202;-77
2023/05/25 07:56:11;;;;;;;6.10;3.03;;;;;21.10;102707.00;;;;5089002;28;20712;-77
2023/05/25 07:58:38;;;;;;;7.05;2.55;;;;;21.20;102709.00;;;;5089706;28;20209;-78
2023/05/25 08:01:06;;;;;;;6.22;2.40;;;;;21.30;102712.00;;;;5088953;28;20229;-78
2023/05/25 08:03:33;;;;;;;5.05;2.40;;;;;21.30;102711.00;;;;5089325;28;20209;-78
2023/05/25 08:06:00;;;;;;;4.78;2.58;;;;;21.40;102720.00;;;;5089483;28;20191;-78
2023/05/25 08:08:30;;;;;;;6.60;2.83;;;;;21.40;102718.00;;;;5089148;28;20206;-77
2023/05/25 08:10:57;;;;;;;5.50;2.50;;;;;21.50;102717.00;;;;5088402;28;20202;-78
2023/05/25 08:13:24;;;;;;;4.55;2.70;;;;;21.50;102716.00;;;;5089095;28;20754;-77
2023/05/25 08:15:52;;;;;;;6.57;2.78;;;;;21.50;102716.00;;;;5088764;28;20282;-78
2023/05/25 08:18:19;;;;;;;5.28;2.53;;;;;21.60;102724.00;;;;5089426;28;20209;-78
2023/05/25 08:20:47;;;;;;;3.88;2.50;;;;;21.60;102727.00;;;;5088923;28;20229;-78
2023/05/25 08:23:14;;;;;;;6.85;3.70;;;;;21.70;102725.00;;;;5089091;28;20206;-78
2023/05/25 08:25:43;;;;;;;5.50;2.42;;;;;21.70;102735.00;;;;5089107;28;20225;-78
2023/05/25 08:28:10;;;;;;;7.28;2.70;;;;;21.80;102733.00;;;;5088405;28;20213;-78
2023/05/25 08:30:37;;;;;;;6.05;2.97;;;;;21.80;102742.00;;;;5088945;28;20198;-78
2023/05/25 08:33:05;;;;;;;6.32;2.78;;;;;21.80;102738.00;;;;5088134;28;20229;-78
2023/05/25 08:35:32;;;;;;;6.05;2.55;;;;;21.90;102738.00;;;;5088722;28;20691;-78
2023/05/25 08:38:00;;;;;;;5.85;2.83;;;;;21.90;102741.00;;;;5088019;28;20202;-78
2023/05/25 08:40:28;;;;;;;6.75;2.35;;;;;21.90;102753.00;;;;5088001;28;20968;-78
2023/05/25 08:42:57;;;;;;;3.47;2.22;;;;;21.90;102756.00;;;;5088268;28;20207;-78
2023/05/25 08:45:24;;;;;;;4.85;2.28;;;;;22.00;102744.00;;;;5087992;28;20218;-77
2023/05/25 08:47:56;;;;;;;8.93;2.38;;;;;22.00;102743.00;;;;5087430;28;20222;-78
2023/05/25 08:50:26;;;;;;;4.53;2.08;;;;;22.00;102743.00;;;;5088859;28;20676;-79
2023/05/25 08:52:55;;;;;;;5.38;2.40;;;;;22.10;102744.00;;;;5089040;28;20583;-78
2023/05/25 08:55:27;;;;;;;8.10;2.83;;;;;22.10;102749.00;;;;5088632;28;20190;-78
2023/05/25 08:58:00;;;;;;;5.95;2.10;;;;;22.10;102742.00;;;;5088199;28;20582;-79
2023/05/25 09:00:33;;;;;;;4.97;1.70;;;;;22.20;102743.00;;;;5087906;28;20710;-78
2023/05/25 09:03:09;;;;;;;3.70;2.25;;;;;22.30;102742.00;;;;5088639;28;20698;-77
2023/05/25 09:05:36;;;;;;;3.85;2.10;;;;;22.40;102738.00;;;;5088735;28;20202;-78
2023/05/25 09:08:05;;;;;;;5.35;2.47;;;;;22.50;102744.00;;;;5088977;28;20202;-78
2023/05/25 09:10:34;;;;;;;4.75;2.35;;;;;22.60;102740.00;;;;5087869;28;20210;-78
2023/05/25 09:13:03;;;;;;;4.70;1.98;;;;;22.70;102745.00;;;;5089049;28;20538;-78
2023/05/25 09:15:31;;;;;;;4.10;1.50;;;;;22.80;102746.00;;;;5088593;28;20197;-78
2023/05/25 09:17:58;;;;;;;2.53;1.60;;;;;22.90;102739.00;;;;5088047;28;20206;-78
2023/05/25 09:20:30;;;;;;;5.07;1.88;;;;;23.00;102748.00;;;;5088120;28;20201;-79
2023/05/25 09:22:58;;;;;;;2.15;1.70;;;;;23.10;102737.00;;;;5088387;28;20313;-78
2023/05/25 09:25:27;;;;;;;5.57;2.08;;;;;23.30;102741.00;;;;5087939;28;21442;-78
2023/05/25 09:27:57;;;;;;;4.15;2.28;;;;;23.40;102748.00;;;;5088741;28;20263;-78
2023/05/25 09:30:31;;;;;;;4.32;1.92;;;;;23.50;102744.00;;;;5087956;28;20256;-79
2023/05/25 09:33:10;;;;;;;3.58;1.77;;;;;23.50;102742.00;;;;5087540;28;20229;-79
2023/05/25 09:35:38;;;;;;;3.42;1.90;;;;;23.60;102745.00;;;;5088174;28;20210;-78
2023/05/25 09:38:05;;;;;;;5.18;2.58;;;;;23.70;102745.00;;;;5088368;28;20568;-77
2023/05/25 09:40:34;;;;;;;5.25;2.47;;;;;23.70;102742.00;;;;5087889;28;20190;-78
2023/05/25 09:43:03;;;;;;;3.58;1.92;;;;;23.80;102744.00;;;;5088198;28;20197;-78
2023/05/25 09:45:32;;;;;;;5.32;1.90;;;;;23.90;102744.00;;;;5088069;28;20565;-78
2023/05/25 09:48:00;;;;;;;4.88;2.53;;;;;24.00;102744.00;;;;5088167;28;20222;-78
2023/05/25 09:50:28;;;;;;;4.03;2.22;;;;;24.10;102732.00;;;;5090578;28;20546;-78
2023/05/25 09:52:59;;;;;;;3.47;2.03;;;;;24.20;102735.00;;;;5092489;28;20202;-79
2023/05/25 09:55:28;;;;;;;5.00;1.67;;;;;24.30;102739.00;;;;5091113;28;20226;-78
2023/05/25 09:57:56;;;;;;;3.40;1.73;;;;;24.40;102725.00;;;;5091080;28;20210;-79
2023/05/25 10:00:24;;;;;;;5.20;2.00;;;;;24.50;102728.00;;;;5092152;28;20202;-78
2023/05/25 10:02:53;;;;;;;3.88;2.03;;;;;24.60;102726.00;;;;5091930;28;20266;-78
2023/05/25 10:05:20;;;;;;;5.35;2.13;;;;;24.70;102731.00;;;;5091009;28;20691;-78
2023/05/25 10:07:49;;;;;;;7.15;2.70;;;;;24.80;102731.00;;;;5091519;28;20668;-78
2023/05/25 10:10:17;;;;;;;4.07;1.95;;;;;24.90;102738.00;;;;5091626;28;20209;-78
2023/05/25 10:12:45;;;;;;;3.58;1.90;;;;;24.90;102733.00;;;;5091935;28;20198;-78
2023/05/25 10:15:13;;;;;;;3.90;1.73;;;;;24.90;102730.00;;;;5091293;28;20205;-79
2023/05/25 10:17:48;;;;;;;3.17;1.83;;;;;24.70;102731.00;;;;5092037;28;20624;-77
2023/05/25 10:20:17;;;;;;;2.88;1.90;;;;;24.70;102722.00;;;;5091340;28;20194;-77
2023/05/25 10:22:53;;;;;;;3.45;1.80;;;;;24.70;102728.00;;;;5091404;28;20565;-78
2023/05/25 10:25:27;;;;;;;2.47;1.45;;;;;24.70;102722.00;;;;5090884;28;20206;-77
2023/05/25 10:27:59;;;;;;;2.80;1.55;;;;;24.70;102736.00;;;;5090886;28;20297;-78
2023/05/25 10:30:27;;;;;;;3.08;1.33;;;;;24.60;102744.00;;;;5091660;28;20209;-77
2023/05/25 10:32:55;;;;;;;1.90;1.60;;;;;24.60;102747.00;;;;5091414;28;20230;-78
2023/05/25 10:35:24;;;;;;;2.30;1.60;;;;;24.50;102750.00;;;;5090970;28;20202;-77
2023/05/25 10:37:53;;;;;;;4.07;2.10;;;;;24.40;102747.00;;;;5091587;28;20202;-78
2023/05/25 10:40:21;;;;;;;4.60;2.03;;;;;24.30;102759.00;;;;5090515;28;20194;-81
2023/05/25 10:42:50;;;;;;;4.38;2.05;;;;;24.20;102751.00;;;;5090989;28;20226;-78
2023/05/25 10:45:18;;;;;;;4.57;1.95;;;;;24.20;102747.00;;;;5091551;28;20194;-78
2023/05/25 10:47:46;;;;;;;3.80;1.70;;;;;24.10;102748.00;;;;5090869;28;20700;-77
2023/05/25 10:50:21;;;;;;;3.85;1.58;;;;;24.00;102748.00;;;;5091773;28;20196;-77
2023/05/25 10:53:00;;;;;;;4.57;1.60;;;;;24.00;102735.00;;;;5091116;28;20193;-77
2023/05/25 10:55:30;;;;;;;7.43;1.70;;;;;24.10;102746.00;;;;5091058;28;20568;-77
2023/05/25 10:58:11;;;;;;;4.45;1.48;;;;;23.90;102751.00;;;;5091017;28;20201;-78
2023/05/25 11:00:40;;;;;;;3.13;1.80;;;;;24.00;102742.00;;;;5090822;28;20279;-77
2023/05/25 11:03:07;;;;;;;2.10;1.50;;;;;24.00;102746.00;;;;5090779;28;20278;-77
2023/05/25 11:05:37;;;;;;;2.67;1.48;;;;;24.00;102756.00;;;;5090989;28;20205;-77
2023/05/25 11:08:07;;;;;;;2.17;1.30;;;;;24.00;102742.00;;;;5090810;28;20671;-78
2023/05/25 11:10:54;;;;;;;3.75;1.92;;;;;23.90;102749.00;;;;5090929;28;20206;-78
2023/05/25 11:13:34;;;;;;;3.63;1.35;;;;;23.90;102746.00;;;;5090421;28;20205;-78
2023/05/25 11:16:23;;;;;;;3.78;1.42;;;;;23.90;102738.00;;;;5090807;28;20208;-77
2023/05/25 11:18:52;;;;;;;2.25;1.50;;;;;24.00;102752.00;;;;5070574;28;20195;-78
2023/05/25 11:21:42;;;;;;;3.28;1.83;;;;;24.00;102752.00;;;;5069976;28;20238;-78
2023/05/25 11:24:15;;;;;;;2.33;1.35;;;;;24.00;102740.00;;;;5070528;28;20652;-78
2023/05/25 11:26:56;;;;;;;3.35;1.67;;;;;23.90;102737.00;;;;5070659;28;20202;-78
2023/05/25 11:29:25;;;;;;;3.75;1.85;;;;;24.10;102745.00;;;;5070333;28;20206;-79
2023/05/25 11:31:54;;;;;;;2.22;1.40;;;;;24.00;102744.00;;;;5070325;28;20295;-78
2023/05/25 11:34:24;;;;;;;3.50;1.70;;;;;24.10;102743.00;;;;5082152;28;20214;-77
2023/05/25 11:36:56;;;;;;;3.50;1.40;;;;;24.00;102749.00;;;;5089647;28;20198;-80
2023/05/25 11:39:25;;;;;;;2.38;1.50;;;;;24.10;102736.00;;;;5090241;28;20702;-79
2023/05/25 11:41:55;;;;;;;2.72;1.50;;;;;24.00;102731.00;;;;5090337;28;20222;-79
2023/05/25 11:44:32;;;;;;;3.08;1.45;;;;;24.00;102728.00;;;;5089966;28;20453;-78
2023/05/25 11:47:07;;;;;;;4.63;1.42;;;;;24.00;102730.00;;;;5089743;28;20198;-79
2023/05/25 11:49:35;;;;;;;2.42;1.27;;;;;24.10;102730.00;;;;5090149;28;20755;-78
2023/05/25 11:52:06;;;;;;;3.75;1.48;;;;;24.10;102722.00;;;;5090258;28;20213;-78
2023/05/25 11:54:35;;;;;;;4.18;1.70;;;;;24.10;102725.00;;;;5090026;28;20201;-80
2023/05/25 11:57:03;;;;;;;3.33;1.70;;;;;24.10;102724.00;;;;5090232;28;20206;-80
2023/05/25 11:59:30;;;;;;;5.75;1.55;;;;;24.10;102720.00;;;;5088263;28;20209;-81
2023/05/25 12:01:59;;;;;;;5.05;1.92;;;;;24.10;102718.00;;;;5089206;28;20233;-81
2023/05/25 12:04:27;;;;;;;2.97;1.83;;;;;24.20;102719.00;;;;5088787;28;20392;-79
2023/05/25 12:07:02;;;;;;;1.98;1.63;;;;;24.10;102726.00;;;;5089125;28;20652;-80
2023/05/25 12:09:30;;;;;;;5.30;1.50;;;;;24.20;102713.00;;;;5068143;28;20548;-80
2023/05/25 12:11:59;;;;;;;2.78;1.58;;;;;24.10;102718.00;;;;5068550;28;20211;-81
2023/05/25 12:14:27;;;;;;;4.15;1.70;;;;;24.20;102720.00;;;;5067665;28;20573;-81
2023/05/25 12:16:54;;;;;;;3.10;1.83;;;;;24.20;102715.00;;;;5068509;28;20206;-80